Wetterstation Vordersexau
Wetterdaten: Woche 01.05.17 - 07.05.17 (KW18)
Datum Zeit Temp. A. Feuchte A. Luftdruck Regen Wind Richtung Taupunkt Windchill Windben
01.05.2017 00:00 11,9 C 53 % 1002,5 hPa 0,0 l/m 0,0 km/h SW 2,6 C 11,9 C 0,0 km/h
01.05.2017 01:00 11,4 C 57 % 1003,7 hPa 0,0 l/m 7,8 km/h SW 3,2 C 10,5 C 4,3 km/h
01.05.2017 02:00 11,8 C 67 % 1004,7 hPa 0,0 l/m 16,2 km/h S 5,9 C 6,9 C 9,0 km/h
01.05.2017 03:00 10,9 C 68 % 1005,2 hPa 0,0 l/m 15,6 km/h S-SW 5,2 C 6,0 C 8,6 km/h
01.05.2017 04:00 10,4 C 70 % 1005,6 hPa 0,0 l/m 15,6 km/h W-SW 5,2 C 5,4 C 8,6 km/h
01.05.2017 05:00 9,6 C 70 % 1006,3 hPa 0,0 l/m 18,8 km/h W-SW 4,4 C 3,2 C 10,4 km/h
01.05.2017 06:00 8,1 C 74 % 1008,0 hPa 0,0 l/m 22,0 km/h SW 3,8 C 0,2 C 12,2 km/h
01.05.2017 07:00 6,4 C 80 % 1009,3 hPa 0,0 l/m 14,3 km/h SW 3,2 C 1,1 C 7,9 km/h
01.05.2017 08:00 5,9 C 84 % 1010,5 hPa 1,0 l/m 3,9 km/h S-SW 3,4 C 5,9 C 2,2 km/h
01.05.2017 09:00 6,2 C 84 % 1011,0 hPa 0,5 l/m 4,5 km/h S 3,7 C 6,2 C 2,5 km/h
01.05.2017 10:00 7,1 C 84 % 1011,6 hPa 1,0 l/m 0,0 km/h SW 4,6 C 7,1 C 0,0 km/h
01.05.2017 11:00 9,1 C 81 % 1011,5 hPa 0,5 l/m 4,5 km/h S-SW 6,0 C 9,1 C 2,5 km/h
01.05.2017 12:00 11,0 C 75 % 1011,4 hPa 0,0 l/m 0,0 km/h SW 6,7 C 11,0 C 0,0 km/h
01.05.2017 13:00 10,8 C 75 % 1011,4 hPa 0,0 l/m 20,1 km/h SW 6,5 C 4,3 C 11,2 km/h
01.05.2017 14:00 10,9 C 72 % 1011,9 hPa 0,0 l/m 22,7 km/h N 6,1 C 3,7 C 12,6 km/h
01.05.2017 15:00 10,9 C 71 % 1012,0 hPa 0,0 l/m 0,0 km/h W-SW 5,9 C 10,9 C 0,0 km/h
01.05.2017 16:00 11,4 C 70 % 1012,0 hPa 0,0 l/m 0,0 km/h SO 6,1 C 11,4 C 0,0 km/h
01.05.2017 17:00 8,4 C 82 % 1012,8 hPa 1,0 l/m 0,0 km/h O-SO 5,5 C 8,4 C 0,0 km/h
01.05.2017 18:00 9,1 C 82 % 1013,1 hPa 0,0 l/m 1,9 km/h SO 6,2 C 9,1 C 1,1 km/h
01.05.2017 19:00 9,3 C 82 % 1013,6 hPa 0,0 l/m 0,0 km/h SO 6,4 C 9,3 C 0,0 km/h
01.05.2017 20:00 7,4 C 84 % 1013,7 hPa 0,0 l/m 0,0 km/h O-SO 4,9 C 7,4 C 0,0 km/h
01.05.2017 21:00 6,3 C 84 % 1013,9 hPa 0,0 l/m 0,0 km/h O-SO 3,8 C 6,3 C 0,0 km/h
01.05.2017 22:00 5,4 C 85 % 1013,9 hPa 0,0 l/m 0,0 km/h O-SO 3,1 C 5,4 C 0,0 km/h
01.05.2017 23:00 5,5 C 85 % 1014,2 hPa 0,0 l/m 0,0 km/h O-NO 3,2 C 5,5 C 0,0 km/h
02.05.2017 00:00 5,9 C 84 % 1014,4 hPa 0,0 l/m 0,0 km/h O-NO 3,4 C 5,9 C 0,0 km/h
02.05.2017 01:00 6,4 C 84 % 1014,0 hPa 0,0 l/m 0,0 km/h N-NO 3,9 C 6,4 C 0,0 km/h
02.05.2017 02:00 6,7 C 84 % 1014,1 hPa 0,0 l/m 0,0 km/h NO 4,2 C 6,7 C 0,0 km/h
02.05.2017 03:00 6,6 C 84 % 1013,8 hPa 0,0 l/m 0,0 km/h NO 4,1 C 6,6 C 0,0 km/h
02.05.2017 04:00 6,5 C 83 % 1013,7 hPa 0,0 l/m 0,0 km/h O-NO 3,8 C 6,5 C 0,0 km/h
02.05.2017 05:00 6,1 C 83 % 1013,4 hPa 0,0 l/m 0,0 km/h O-NO 3,4 C 6,1 C 0,0 km/h
02.05.2017 06:00 5,4 C 83 % 1013,6 hPa 0,0 l/m 0,0 km/h O-NO 2,7 C 5,4 C 0,0 km/h
02.05.2017 07:00 6,7 C 82 % 1013,8 hPa 0,0 l/m 0,0 km/h NO 3,8 C 6,7 C 0,0 km/h
02.05.2017 08:00 14,9 C 83 % 1013,5 hPa 0,0 l/m 0,0 km/h SW 12,0 C 14,9 C 0,0 km/h
02.05.2017 09:00 16,8 C 59 % 1013,2 hPa 0,0 l/m 5,8 km/h SO 8,7 C 16,8 C 3,2 km/h
02.05.2017 10:00 18,5 C 54 % 1013,1 hPa 0,0 l/m 0,0 km/h W 9,0 C 18,5 C 0,0 km/h
02.05.2017 11:00 17,8 C 52 % 1012,7 hPa 0,0 l/m 0,0 km/h W-NW 7,8 C 17,8 C 0,0 km/h
02.05.2017 12:00 19,1 C 48 % 1012,3 hPa 0,0 l/m 0,0 km/h W 7,8 C 19,1 C 0,0 km/h
02.05.2017 13:00 18,1 C 48 % 1012,1 hPa 0,0 l/m 0,6 km/h SW 6,9 C 18,1 C 0,4 km/h
02.05.2017 14:00 18,4 C 44 % 1012,1 hPa 0,0 l/m 13,6 km/h SW 5,9 C 15,7 C 7,6 km/h
02.05.2017 15:00 16,6 C 49 % 1012,3 hPa 0,0 l/m 20,1 km/h W 5,8 C 11,8 C 11,2 km/h
02.05.2017 16:00 17,9 C 51 % 1012,5 hPa 0,0 l/m 13,0 km/h SW 7,6 C 15,3 C 7,2 km/h
02.05.2017 17:00 16,9 C 51 % 1012,8 hPa 0,0 l/m 9,7 km/h W 6,7 C 15,3 C 5,4 km/h
02.05.2017 18:00 18,6 C 50 % 1012,6 hPa 0,0 l/m 0,0 km/h W 8,0 C 18,6 C 0,0 km/h
02.05.2017 19:00 15,5 C 52 % 1012,8 hPa 0,0 l/m 0,0 km/h S 5,7 C 15,5 C 0,0 km/h
02.05.2017 20:00 11,8 C 60 % 1013,3 hPa 0,0 l/m 0,0 km/h W 4,3 C 11,8 C 0,0 km/h
02.05.2017 21:00 11,1 C 67 % 1013,8 hPa 0,0 l/m 0,0 km/h W 5,2 C 11,1 C 0,0 km/h
02.05.2017 22:00 9,9 C 71 % 1014,1 hPa 0,0 l/m 0,0 km/h W 4,9 C 9,9 C 0,0 km/h
02.05.2017 23:00 9,6 C 74 % 1014,7 hPa 0,0 l/m 0,0 km/h W 5,2 C 9,6 C 0,0 km/h
03.05.2017 00:00 9,3 C 77 % 1015,1 hPa 0,0 l/m 0,0 km/h SO 5,5 C 9,3 C 0,0 km/h
03.05.2017 01:00 8,8 C 82 % 1015,1 hPa 0,5 l/m 0,0 km/h SO 5,9 C 8,8 C 0,0 km/h
03.05.2017 02:00 8,1 C 83 % 1015,3 hPa 0,0 l/m 0,0 km/h SO 5,4 C 8,1 C 0,0 km/h
03.05.2017 03:00 8,2 C 84 % 1015,2 hPa 0,0 l/m 0,0 km/h SO 5,7 C 8,2 C 0,0 km/h
03.05.2017 04:00 7,5 C 84 % 1015,0 hPa 0,0 l/m 0,0 km/h SO 5,0 C 7,5 C 0,0 km/h
03.05.2017 05:00 6,9 C 85 % 1015,1 hPa 0,0 l/m 0,0 km/h SO 4,6 C 6,9 C 0,0 km/h
03.05.2017 06:00 6,6 C 85 % 1015,5 hPa 0,0 l/m 0,0 km/h NO 4,3 C 6,6 C 0,0 km/h
03.05.2017 07:00 9,6 C 77 % 1015,3 hPa 0,0 l/m 0,0 km/h O 5,8 C 9,6 C 0,0 km/h
03.05.2017 08:00 17,1 C 72 % 1015,1 hPa 0,0 l/m 0,0 km/h SW 12,0 C 17,1 C 0,0 km/h
03.05.2017 09:00 19,9 C 54 % 1015,1 hPa 0,0 l/m 0,0 km/h W 10,3 C 19,9 C 0,0 km/h
03.05.2017 10:00 15,3 C 63 % 1015,3 hPa 0,0 l/m 3,2 km/h W 8,3 C 15,3 C 1,8 km/h
03.05.2017 11:00 15,6 C 63 % 1015,2 hPa 0,0 l/m 0,0 km/h W-SW 8,6 C 15,6 C 0,0 km/h
03.05.2017 12:00 15,9 C 58 % 1014,9 hPa 0,0 l/m 0,0 km/h N-NW 7,6 C 15,9 C 0,0 km/h
03.05.2017 13:00 21,1 C 49 % 1014,5 hPa 0,0 l/m 0,0 km/h SO 10,0 C 21,1 C 0,0 km/h
03.05.2017 14:00 19,5 C 54 % 1014,0 hPa 0,0 l/m 0,0 km/h O-NO 9,9 C 19,5 C 0,0 km/h
03.05.2017 15:00 17,9 C 55 % 1013,7 hPa 0,0 l/m 0,0 km/h O-SO 8,7 C 17,9 C 0,0 km/h
03.05.2017 16:00 22,2 C 47 % 1013,2 hPa 0,0 l/m 0,0 km/h N 10,3 C 22,2 C 0,0 km/h
03.05.2017 17:00 23,9 C 40 % 1013,0 hPa 0,0 l/m 0,0 km/h SW 9,5 C 23,9 C 0,0 km/h
03.05.2017 18:00 17,4 C 51 % 1012,9 hPa 0,0 l/m 0,0 km/h NO 7,2 C 17,4 C 0,0 km/h
03.05.2017 19:00 13,0 C 66 % 1013,5 hPa 0,5 l/m 0,0 km/h N-NO 6,8 C 13,0 C 0,0 km/h
03.05.2017 20:00 10,4 C 74 % 1013,9 hPa 0,0 l/m 0,0 km/h N-NO 6,0 C 10,4 C 0,0 km/h
03.05.2017 21:00 9,6 C 79 % 1014,1 hPa 0,0 l/m 0,0 km/h N-NO 6,1 C 9,6 C 0,0 km/h
03.05.2017 22:00 7,8 C 81 % 1014,3 hPa 0,0 l/m 0,0 km/h N-NO 4,7 C 7,8 C 0,0 km/h
03.05.2017 23:00 7,3 C 83 % 1014,3 hPa 0,0 l/m 0,0 km/h N-NO 4,6 C 7,3 C 0,0 km/h
04.05.2017 00:00 7,4 C 84 % 1014,3 hPa 0,0 l/m 0,0 km/h N-NO 4,9 C 7,4 C 0,0 km/h
04.05.2017 01:00 7,4 C 84 % 1014,0 hPa 0,0 l/m 0,0 km/h O-NO 4,9 C 7,4 C 0,0 km/h
04.05.2017 02:00 6,9 C 85 % 1013,6 hPa 0,0 l/m 0,0 km/h O-SO 4,6 C 6,9 C 0,0 km/h
04.05.2017 03:00 7,3 C 85 % 1013,5 hPa 0,0 l/m 0,0 km/h O-SO 4,9 C 7,3 C 0,0 km/h
04.05.2017 04:00 6,9 C 85 % 1013,1 hPa 0,0 l/m 0,0 km/h O-SO 4,6 C 6,9 C 0,0 km/h
04.05.2017 05:00 6,4 C 84 % 1012,9 hPa 0,0 l/m 0,0 km/h O-SO 3,9 C 6,4 C 0,0 km/h
04.05.2017 06:00 7,8 C 84 % 1013,2 hPa 0,0 l/m 0,0 km/h O-SO 5,3 C 7,8 C 0,0 km/h
04.05.2017 07:00 8,3 C 84 % 1013,1 hPa 0,0 l/m 0,0 km/h O-SO 5,8 C 8,3 C 0,0 km/h
04.05.2017 08:00 9,3 C 84 % 1013,0 hPa 0,0 l/m 0,0 km/h O-SO 6,7 C 9,3 C 0,0 km/h
04.05.2017 09:00 8,9 C 84 % 1013,1 hPa 2,1 l/m 0,0 km/h O-SO 6,3 C 8,9 C 0,0 km/h
04.05.2017 10:00 10,7 C 84 % 1013,0 hPa 0,5 l/m 0,0 km/h O-SO 8,1 C 10,7 C 0,0 km/h
04.05.2017 11:00 12,1 C 84 % 1013,1 hPa 1,6 l/m 0,0 km/h N-NO 9,5 C 12,1 C 0,0 km/h
04.05.2017 12:00 14,7 C 79 % 1012,7 hPa 0,0 l/m 0,0 km/h N 11,1 C 14,7 C 0,0 km/h
04.05.2017 13:00 17,9 C 62 % 1012,3 hPa 0,0 l/m 0,0 km/h N-NO 10,5 C 17,9 C 0,0 km/h
04.05.2017 14:00 17,9 C 57 % 1011,8 hPa 0,0 l/m 0,0 km/h NO 9,3 C 17,9 C 0,0 km/h
04.05.2017 15:00 17,1 C 60 % 1011,9 hPa 0,0 l/m 0,0 km/h W-SW 9,3 C 17,1 C 0,0 km/h
04.05.2017 16:00 20,7 C 53 % 1011,7 hPa 0,0 l/m 0,0 km/h NW 10,8 C 20,7 C 0,0 km/h
04.05.2017 17:00 22,1 C 47 % 1011,6 hPa 0,5 l/m 0,0 km/h W-NW 10,3 C 22,1 C 0,0 km/h
04.05.2017 18:00 18,9 C 49 % 1011,8 hPa 0,0 l/m 0,0 km/h S-SW 7,9 C 18,9 C 0,0 km/h
04.05.2017 19:00 12,6 C 69 % 1012,7 hPa 0,0 l/m 18,8 km/h W 7,1 C 7,0 C 10,4 km/h
04.05.2017 20:00 11,8 C 74 % 1013,5 hPa 0,0 l/m 0,0 km/h W-SW 7,3 C 11,8 C 0,0 km/h
04.05.2017 21:00 10,3 C 78 % 1014,4 hPa 0,0 l/m 0,0 km/h S-SW 6,6 C 10,3 C 0,0 km/h
04.05.2017 22:00 9,6 C 81 % 1014,7 hPa 0,0 l/m 0,0 km/h NW 6,5 C 9,6 C 0,0 km/h
04.05.2017 23:00 8,9 C 83 % 1015,2 hPa 0,0 l/m 0,0 km/h N 6,2 C 8,9 C 0,0 km/h
05.05.2017 00:00 8,6 C 84 % 1015,4 hPa 0,0 l/m 0,0 km/h N 6,1 C 8,6 C 0,0 km/h
05.05.2017 01:00 8,9 C 84 % 1015,5 hPa 0,0 l/m 0,0 km/h N 6,3 C 8,9 C 0,0 km/h
05.05.2017 02:00 8,4 C 84 % 1015,3 hPa 0,0 l/m 0,0 km/h N 5,9 C 8,4 C 0,0 km/h
05.05.2017 03:00 8,2 C 85 % 1015,5 hPa 0,0 l/m 0,0 km/h N 5,8 C 8,2 C 0,0 km/h
05.05.2017 04:00 8,3 C 85 % 1015,5 hPa 0,0 l/m 0,0 km/h O-SO 5,9 C 8,3 C 0,0 km/h
05.05.2017 05:00 7,6 C 84 % 1015,2 hPa 0,0 l/m 0,0 km/h O-SO 5,1 C 7,6 C 0,0 km/h
05.05.2017 06:00 6,4 C 84 % 1015,4 hPa 0,0 l/m 0,0 km/h NO 3,9 C 6,4 C 0,0 km/h
05.05.2017 07:00 11,9 C 81 % 1015,8 hPa 0,0 l/m 0,0 km/h W 8,7 C 11,9 C 0,0 km/h
05.05.2017 08:00 13,4 C 73 % 1016,4 hPa 0,0 l/m 0,0 km/h S-SW 8,7 C 13,4 C 0,0 km/h
05.05.2017 09:00 14,9 C 71 % 1016,4 hPa 0,0 l/m 0,0 km/h N-NW 9,7 C 14,9 C 0,0 km/h
05.05.2017 10:00 16,6 C 71 % 1016,0 hPa 0,0 l/m 0,0 km/h W-NW 11,3 C 16,6 C 0,0 km/h
05.05.2017 11:00 18,8 C 59 % 1016,0 hPa 0,0 l/m 0,0 km/h W 10,6 C 18,8 C 0,0 km/h
05.05.2017 12:00 19,9 C 58 % 1015,2 hPa 0,0 l/m 3,2 km/h N 11,4 C 19,9 C 1,8 km/h
05.05.2017 13:00 21,0 C 52 % 1014,4 hPa 0,0 l/m 0,0 km/h W-NW 10,8 C 21,0 C 0,0 km/h
05.05.2017 14:00 23,9 C 46 % 1014,0 hPa 0,0 l/m 0,0 km/h N 11,6 C 23,9 C 0,0 km/h
05.05.2017 15:00 23,9 C 41 % 1013,2 hPa 0,0 l/m 1,9 km/h N-NO 9,8 C 23,9 C 1,1 km/h
05.05.2017 16:00 27,4 C 35 % 1012,6 hPa 0,0 l/m 0,0 km/h N 10,6 C 27,4 C 0,0 km/h
05.05.2017 17:00 28,9 C 34 % 1012,2 hPa 0,0 l/m 3,2 km/h N 11,4 C 28,9 C 1,8 km/h
05.05.2017 18:00 27,4 C 34 % 1011,9 hPa 0,0 l/m 0,0 km/h N-NO 10,1 C 27,4 C 0,0 km/h
05.05.2017 19:00 19,4 C 46 % 1011,8 hPa 0,0 l/m 0,0 km/h NO 7,5 C 19,4 C 0,0 km/h
05.05.2017 20:00 13,9 C 59 % 1011,8 hPa 0,0 l/m 0,0 km/h O-NO 6,0 C 13,9 C 0,0 km/h
05.05.2017 21:00 10,3 C 69 % 1011,7 hPa 0,0 l/m 0,0 km/h O-SO 4,9 C 10,3 C 0,0 km/h
05.05.2017 22:00 10,3 C 69 % 1011,5 hPa 0,0 l/m 0,0 km/h NO 4,9 C 10,3 C 0,0 km/h
05.05.2017 23:00 8,4 C 74 % 1011,1 hPa 0,0 l/m 0,0 km/h NO 4,0 C 8,4 C 0,0 km/h
06.05.2017 00:00 7,8 C 78 % 1010,5 hPa 0,0 l/m 0,0 km/h NO 4,2 C 7,8 C 0,0 km/h
06.05.2017 01:00 6,3 C 81 % 1009,8 hPa 0,0 l/m 0,0 km/h O 3,3 C 6,3 C 0,0 km/h
06.05.2017 02:00 6,0 C 83 % 1009,8 hPa 0,0 l/m 0,0 km/h O-NO 3,3 C 6,0 C 0,0 km/h
06.05.2017 03:00 5,8 C 84 % 1009,1 hPa 0,0 l/m 0,0 km/h N-NO 3,3 C 5,8 C 0,0 km/h
06.05.2017 04:00 6,3 C 84 % 1008,5 hPa 0,0 l/m 0,0 km/h W-NW 3,8 C 6,3 C 0,0 km/h
06.05.2017 05:00 6,6 C 85 % 1008,8 hPa 0,0 l/m 0,0 km/h W 4,3 C 6,6 C 0,0 km/h
06.05.2017 06:00 6,8 C 85 % 1009,2 hPa 0,0 l/m 0,0 km/h O-SO 4,5 C 6,8 C 0,0 km/h
06.05.2017 07:00 10,7 C 84 % 1008,8 hPa 0,0 l/m 0,0 km/h S-SO 8,1 C 10,7 C 0,0 km/h
06.05.2017 08:00 12,4 C 79 % 1008,4 hPa 0,0 l/m 0,0 km/h N-NO 8,9 C 12,4 C 0,0 km/h
06.05.2017 09:00 17,4 C 71 % 1006,9 hPa 0,0 l/m 0,0 km/h W-SW 12,1 C 17,4 C 0,0 km/h
06.05.2017 10:00 13,6 C 76 % 1007,3 hPa 0,0 l/m 6,5 km/h W 9,4 C 13,6 C 3,6 km/h
06.05.2017 11:00 14,4 C 71 % 1007,1 hPa 0,0 l/m 0,0 km/h NO 9,2 C 14,4 C 0,0 km/h
06.05.2017 12:00 18,5 C 61 % 1006,4 hPa 0,0 l/m 0,0 km/h NW 10,8 C 18,5 C 0,0 km/h
06.05.2017 13:00 14,8 C 70 % 1006,6 hPa 0,0 l/m 0,0 km/h S-SW 9,4 C 14,8 C 0,0 km/h
06.05.2017 14:00 13,6 C 75 % 1008,0 hPa 0,0 l/m 0,0 km/h SO 9,3 C 13,6 C 0,0 km/h
06.05.2017 15:00 12,3 C 81 % 1008,3 hPa 0,5 l/m 0,0 km/h SO 9,1 C 12,3 C 0,0 km/h
06.05.2017 16:00 12,6 C 84 % 1008,5 hPa 1,6 l/m 1,9 km/h O-SO 10,0 C 12,6 C 1,1 km/h
06.05.2017 17:00 12,0 C 84 % 1008,6 hPa 1,6 l/m 0,0 km/h O-SO 9,4 C 12,0 C 0,0 km/h
06.05.2017 18:00 11,6 C 83 % 1008,6 hPa 2,6 l/m 2,6 km/h SO 8,8 C 11,6 C 1,4 km/h
06.05.2017 19:00 11,6 C 82 % 1008,8 hPa 1,6 l/m 3,2 km/h SO 8,6 C 11,6 C 1,8 km/h
06.05.2017 20:00 11,3 C 81 % 1009,0 hPa 1,6 l/m 0,0 km/h SO 8,2 C 11,3 C 0,0 km/h
06.05.2017 21:00 11,2 C 81 % 1009,3 hPa 1,0 l/m 0,0 km/h S-SW 8,1 C 11,2 C 0,0 km/h
06.05.2017 22:00 11,4 C 79 % 1009,6 hPa 0,5 l/m 14,9 km/h S 7,9 C 6,9 C 8,3 km/h
06.05.2017 23:00 11,1 C 78 % 1010,0 hPa 0,5 l/m 11,0 km/h W 7,4 C 8,3 C 6,1 km/h
07.05.2017 00:00 11,2 C 79 % 1010,3 hPa 0,0 l/m 20,1 km/h S-SW 7,7 C 4,8 C 11,2 km/h
07.05.2017 01:00 11,4 C 83 % 1010,3 hPa 0,0 l/m 19,4 km/h SW 8,6 C 5,3 C 10,8 km/h
07.05.2017 02:00 11,6 C 84 % 1010,5 hPa 0,0 l/m 4,5 km/h W 9,0 C 11,6 C 2,5 km/h
07.05.2017 03:00 11,6 C 85 % 1010,8 hPa 0,5 l/m 13,0 km/h SW 9,2 C 7,9 C 7,2 km/h
07.05.2017 04:00 10,9 C 84 % 1010,9 hPa 0,0 l/m 5,8 km/h W-SW 8,3 C 10,9 C 3,2 km/h
07.05.2017 05:00 10,9 C 81 % 1011,2 hPa 1,0 l/m 13,6 km/h S-SO 7,8 C 6,8 C 7,6 km/h
07.05.2017 06:00 10,9 C 79 % 1011,8 hPa 0,5 l/m 7,8 km/h W-SW 7,4 C 9,9 C 4,3 km/h
07.05.2017 07:00 11,3 C 78 % 1012,0 hPa 1,0 l/m 4,5 km/h SW 7,6 C 11,3 C 2,5 km/h
07.05.2017 08:00 12,2 C 79 % 1012,4 hPa 1,0 l/m 20,7 km/h SW 8,7 C 5,9 C 11,5 km/h
07.05.2017 09:00 12,6 C 84 % 1013,1 hPa 0,0 l/m 17,5 km/h S-SW 10,0 C 7,4 C 9,7 km/h
07.05.2017 10:00 13,8 C 85 % 1013,3 hPa 0,0 l/m 11,7 km/h S-SW 11,3 C 11,0 C 6,5 km/h
07.05.2017 11:00 13,9 C 82 % 1013,3 hPa 0,0 l/m 21,4 km/h SW 10,9 C 8,0 C 11,9 km/h
07.05.2017 12:00 15,1 C 78 % 1013,2 hPa 0,0 l/m 7,1 km/h SW 11,3 C 14,7 C 4,0 km/h
07.05.2017 13:00 15,1 C 75 % 1013,5 hPa 0,0 l/m 32,4 km/h W-SW 10,7 C 7,4 C 18,0 km/h
07.05.2017 14:00 13,6 C 78 % 1013,4 hPa 0,0 l/m 10,4 km/h S-SO 9,8 C 11,4 C 5,8 km/h
07.05.2017 15:00 13,1 C 81 % 1013,4 hPa 0,0 l/m 22,7 km/h SW 9,9 C 6,6 C 12,6 km/h
07.05.2017 16:00 12,4 C 83 % 1013,6 hPa 0,0 l/m 16,8 km/h W-SW 9,6 C 7,4 C 9,4 km/h
07.05.2017 17:00 11,9 C 84 % 1013,6 hPa 0,5 l/m 2,6 km/h S-SW 9,3 C 11,9 C 1,4 km/h
07.05.2017 18:00 11,3 C 83 % 1013,7 hPa 0,0 l/m 9,7 km/h SW 8,5 C 9,2 C 5,4 km/h
07.05.2017 19:00 10,9 C 80 % 1014,0 hPa 1,6 l/m 9,1 km/h S 7,6 C 9,1 C 5,0 km/h
07.05.2017 20:00 10,6 C 78 % 1014,6 hPa 0,0 l/m 3,2 km/h S-SW 6,9 C 10,6 C 1,8 km/h
07.05.2017 21:00 10,6 C 77 % 1014,4 hPa 0,0 l/m 7,8 km/h W 6,7 C 9,6 C 4,3 km/h
07.05.2017 22:00 10,4 C 76 % 1014,3 hPa 0,5 l/m 0,0 km/h W 6,4 C 10,4 C 0,0 km/h
07.05.2017 23:00 10,2 C 74 % 1014,4 hPa 1,6 l/m 3,2 km/h SW 5,8 C 10,2 C 1,8 km/h
Min-Datum _ 01.05.17 05.05.17 01.05.17 - 01.05.17 - 01.05.17 01.05.17 01.05.17
_ Min-Zeit 22:57 17:57 00:57 - 00:57 - 00:57 06:57 00:57
Minimum _ 5,4 C 34 % 1002,5 hPa - 0,0 km/h - 2,6 C 0,2 C 0,0 km/h
Max-Datum _ 05.05.17 01.05.17 05.05.17 06.05.17 07.05.17 - 06.05.17 05.05.17 07.05.17
_ Max-Zeit 17:57 22:57 08:57 18:57 13:56 - 09:57 17:57 13:56
Maximum _ 28,9 C 85 % 1016,4 hPa 2,6 l/m 32,4 km/h
W-SW
- 12,1 C 28,9 C 18,0 km/h
W-SW
Durchschnitt _ 12,1 C 73 % 1012,4 hPa #29,5 l/m 3,5 km/h O-SO 7,0 C 11,3 C 1,9 km/h
www.sexauwetter.de